Terminal Aerodrome Forecast
Issued by NWS Paducah, KY

Home | Current Version | Previous Version | Graphics & Text | Print | Product List | Glossary On
Versions: 1 2 3 4 5 6 7 8 9 10 11 12 13 14
000
FTUS43 KPAH 010520
TAFEVV
TAF
KEVV 010520Z 0106/0206 27003KT P6SM VCSH SCT050
     FM010700 29003KT P6SM SKC
     FM011300 36005KT P6SM FEW050
     FM020100 00000KT P6SM SCT250=

USA.gov is the U.S. government's official web portal to all federal, state and local government web resources and services.